Time;durP1;ratioP1;P1;durP2;ratioP2;P2;SDS_P1;SDS_P2;PMS_P1;PMS_P2;Temp;Humidity;BMP_temperature;BMP_pressure;BME280_temperature;BME280_humidity;BME280_pressure;Samples;Min_cycle;Max_cycle;Signal;HPM_P1;HPM_P2
2023/02/19 00:01:03;;;;;;;9.48;4.72;;;12.10;88.70;;;;;;5046311;28;20071;-59
2023/02/19 00:03:28;;;;;;;9.50;5.32;;;12.10;88.60;;;;;;5043612;28;20502;-63
2023/02/19 00:05:54;;;;;;;8.98;5.13;;;12.10;88.60;;;;;;5046085;28;20123;-58
2023/02/19 00:08:20;;;;;;;11.80;5.97;;;12.10;88.60;;;;;;5044995;28;20064;-65
2023/02/19 00:10:45;;;;;;;16.30;5.85;;;12.00;88.60;;;;;;5044374;28;20478;-59
2023/02/19 00:13:11;;;;;;;15.23;6.32;;;12.00;88.70;;;;;;5058489;28;20025;-63
2023/02/19 00:15:37;;;;;;;12.65;5.32;;;12.00;88.80;;;;;;5045287;28;20029;-64
2023/02/19 00:18:03;;;;;;;11.25;5.97;;;12.00;88.90;;;;;;5042499;28;20021;-63
2023/02/19 00:20:28;;;;;;;16.40;7.57;;;12.00;89.00;;;;;;5044056;28;20029;-59
2023/02/19 00:22:54;;;;;;;15.18;6.13;;;12.00;88.90;;;;;;5041266;28;20029;-62
2023/02/19 00:25:20;;;;;;;13.23;5.68;;;11.90;88.90;;;;;;5043365;28;20115;-63
2023/02/19 00:27:45;;;;;;;10.18;6.25;;;11.90;89.00;;;;;;5041198;28;20584;-63
2023/02/19 00:30:11;;;;;;;12.52;5.85;;;12.00;89.00;;;;;;5045905;28;20377;-59
2023/02/19 00:32:37;;;;;;;7.50;4.70;;;12.00;89.00;;;;;;5047410;28;20365;-63
2023/02/19 00:35:03;;;;;;;12.10;5.80;;;11.90;89.10;;;;;;5047405;28;20037;-63
2023/02/19 00:37:28;;;;;;;9.38;4.65;;;11.90;89.10;;;;;;5046847;28;20075;-63
2023/02/19 00:39:54;;;;;;;10.82;5.25;;;11.90;89.20;;;;;;5048034;28;20037;-59
2023/02/19 00:42:20;;;;;;;6.60;3.90;;;11.90;89.20;;;;;;5046031;28;20493;-59
2023/02/19 00:44:45;;;;;;;9.50;4.65;;;11.90;89.10;;;;;;5047907;28;20435;-59
2023/02/19 00:47:11;;;;;;;9.77;5.18;;;12.00;89.10;;;;;;5045820;28;20099;-59
2023/02/19 00:49:36;;;;;;;10.73;4.85;;;12.00;89.10;;;;;;5045903;28;20071;-60
2023/02/19 00:52:02;;;;;;;9.15;5.43;;;12.00;89.10;;;;;;5045589;28;20541;-63
2023/02/19 00:54:28;;;;;;;10.15;5.03;;;12.00;89.60;;;;;;5047890;28;20312;-64
2023/02/19 00:56:53;;;;;;;11.65;4.70;;;12.00;89.00;;;;;;5047055;28;20036;-58
2023/02/19 00:59:19;;;;;;;12.05;4.97;;;12.00;89.00;;;;;;5046147;28;20032;-58
2023/02/19 01:01:45;;;;;;;13.00;5.85;;;11.90;89.10;;;;;;5046062;28;20033;-59
2023/02/19 01:04:10;;;;;;;10.13;4.57;;;11.90;89.30;;;;;;5045742;28;20079;-59
2023/02/19 01:06:36;;;;;;;8.05;4.43;;;11.90;89.40;;;;;;5042848;28;20404;-63
2023/02/19 01:09:04;;;;;;;7.35;4.38;;;11.90;89.50;;;;;;5044075;28;20037;-59
2023/02/19 01:11:30;;;;;;;7.82;4.82;;;11.90;89.60;;;;;;5041658;28;20120;-64
2023/02/19 01:14:00;;;;;;;6.00;3.38;;;11.90;89.50;;;;;;5046162;28;20514;-64
2023/02/19 01:16:26;;;;;;;5.45;2.95;;;11.90;89.40;;;;;;5047277;28;20017;-59
2023/02/19 01:18:53;;;;;;;5.30;3.05;;;11.90;89.30;;;;;;5046812;28;20052;-60
2023/02/19 01:21:21;;;;;;;10.00;4.15;;;11.90;89.20;;;;;;5047268;28;20526;-64
2023/02/19 01:23:48;;;;;;;5.90;3.42;;;11.90;89.30;;;;;;5045982;28;20079;-64
2023/02/19 01:26:20;;;;;;;15.02;4.57;;;11.90;89.30;;;;;;5062502;28;20079;-63
2023/02/19 01:28:47;;;;;;;8.73;4.25;;;11.90;89.40;;;;;;5043094;28;20040;-59
2023/02/19 01:31:18;;;;;;;7.68;3.83;;;11.90;89.40;;;;;;5041478;28;20025;-64
2023/02/19 01:33:49;;;;;;;10.37;4.43;;;11.90;89.40;;;;;;5044031;28;20067;-60
2023/02/19 01:36:15;;;;;;;7.63;4.88;;;11.90;89.40;;;;;;5047420;28;20268;-60
2023/02/19 01:38:41;;;;;;;9.77;3.80;;;11.90;89.30;;;;;;5044168;28;20447;-64
2023/02/19 01:41:11;;;;;;;10.15;4.85;;;11.90;89.30;;;;;;5045347;28;20093;-64
2023/02/19 01:44:03;;;;;;;8.27;5.07;;;11.90;89.30;;;;;;5011313;28;1111265;-64
2023/02/19 01:46:34;;;;;;;7.20;4.07;;;11.90;89.20;;;;;;5048153;28;20468;-63
2023/02/19 01:49:25;;;;;;;7.13;4.22;;;11.80;89.40;;;;;;5046172;28;20176;-61
2023/02/19 01:51:57;;;;;;;8.00;5.20;;;11.80;89.20;;;;;;5047090;28;20485;-59
2023/02/19 01:54:29;;;;;;;11.90;4.50;;;11.90;89.40;;;;;;5051320;28;20029;-63
2023/02/19 01:56:55;;;;;;;9.95;5.18;;;11.80;89.20;;;;;;5050772;28;20575;-63
2023/02/19 01:59:21;;;;;;;6.78;3.78;;;11.80;89.20;;;;;;5046740;28;20037;-59
2023/02/19 02:01:48;;;;;;;7.25;4.25;;;11.90;89.30;;;;;;5051062;28;20438;-64
2023/02/19 02:04:16;;;;;;;7.85;4.82;;;11.90;89.20;;;;;;5048868;28;20468;-63
2023/02/19 02:06:53;;;;;;;8.73;5.13;;;11.90;89.10;;;;;;5051353;28;20121;-64
2023/02/19 02:12:06;;;;;;;7.78;4.45;;;11.80;89.10;;;;;;5046391;28;20125;-63
2023/02/19 02:14:36;;;;;;;9.75;4.35;;;11.80;89.20;;;;;;5050963;28;20163;-59
2023/02/19 02:17:04;;;;;;;5.50;3.60;;;11.80;89.20;;;;;;5047247;28;20461;-58
2023/02/19 02:19:40;;;;;;;11.63;4.57;;;11.70;89.20;;;;;;5051182;28;20086;-59
2023/02/19 02:22:25;;;;;;;4.25;3.20;;;11.80;89.20;;;;;;5034977;28;20517;-59
2023/02/19 02:25:13;;;;;;;11.07;3.83;;;11.80;89.30;;;;;;5052681;28;20166;-63
2023/02/19 02:28:03;;;;;;;5.70;3.53;;;11.70;89.10;;;;;;5043546;28;20021;-58
2023/02/19 02:30:44;;;;;;;13.38;3.92;;;11.80;89.30;;;;;;5038031;28;20025;-59
2023/02/19 02:33:23;;;;;;;4.57;3.90;;;11.70;89.20;;;;;;5043782;28;20021;-63
2023/02/19 02:36:17;;;;;;;7.30;3.47;;;11.70;89.30;;;;;;5047273;28;20029;-64
2023/02/19 02:38:45;;;;;;;6.78;3.00;;;11.60;89.30;;;;;;5037971;28;20025;-64
2023/02/19 02:41:12;;;;;;;6.07;3.55;;;11.60;90.00;;;;;;5047456;28;20415;-63
2023/02/19 02:43:38;;;;;;;9.95;3.92;;;11.60;89.50;;;;;;5049171;28;20044;-64
2023/02/19 02:46:04;;;;;;;5.55;3.33;;;11.60;89.40;;;;;;5052347;28;20480;-64
2023/02/19 02:48:52;;;;;;;10.18;3.28;;;11.60;89.40;;;;;;5047859;28;20021;-60
2023/02/19 02:51:21;;;;;;;9.57;3.60;;;11.70;89.30;;;;;;5047394;28;20029;-60
2023/02/19 02:56:39;;;;;;;5.65;3.28;;;11.60;89.40;;;;;;5045614;28;20499;-60
2023/02/19 02:59:07;;;;;;;11.88;2.80;;;11.60;89.40;;;;;;5050618;28;20045;-60
2023/02/19 03:05:50;;;;;;;6.03;3.58;;;11.60;89.20;;;;;;5050855;28;20515;-59
2023/02/19 03:07:35;;;;;;;5.85;3.00;;;11.60;89.20;;;;;;5062390;28;20072;-60
2023/02/19 03:10:04;;;;;;;9.73;3.63;;;11.60;89.20;;;;;;5045701;28;20608;-60
2023/02/19 03:20:55;;;;;;;5.80;2.95;;;11.60;88.90;;;;;;5050324;28;20595;-63
2023/02/19 03:26:02;;;;;;;5.55;3.08;;;11.60;89.00;;;;;;5048514;28;20013;-64
2023/02/19 03:26:13;;;;;;;5.03;2.60;;;11.60;89.00;;;;;;5047167;28;20040;-61
2023/02/19 03:31:28;;;;;;;5.88;2.33;;;11.60;89.00;;;;;;5043386;28;20040;-64
2023/02/19 03:33:58;;;;;;;8.13;3.25;;;11.60;89.00;;;;;;5048582;28;20438;-64
2023/02/19 03:36:32;;;;;;;2.20;1.63;;;11.60;88.80;;;;;;5049690;28;20672;-63
2023/02/19 03:39:05;;;;;;;8.25;2.50;;;11.60;88.80;;;;;;5042178;28;20103;-64
2023/02/19 03:42:16;;;;;;;5.38;2.70;;;11.60;89.40;;;;;;5042631;28;20035;-59
2023/02/19 03:45:06;;;;;;;2.72;1.92;;;11.60;88.70;;;;;;5046273;28;20094;-63
2023/02/19 03:47:44;;;;;;;2.92;1.48;;;11.60;88.90;;;;;;5066696;28;20090;-63
2023/02/19 03:50:35;;;;;;;3.30;1.48;;;11.70;88.70;;;;;;5045327;28;20052;-64
2023/02/19 03:53:15;;;;;;;4.18;2.42;;;11.70;88.50;;;;;;5047049;28;20039;-60
2023/02/19 03:56:01;;;;;;;6.85;2.15;;;11.70;88.60;;;;;;5049269;28;20017;-64
2023/02/19 03:58:49;;;;;;;9.98;2.38;;;11.70;88.60;;;;;;5047331;28;20472;-64
2023/02/19 04:01:24;;;;;;;3.85;1.85;;;11.70;88.60;;;;;;5041744;28;20170;-63
2023/02/19 04:04:03;;;;;;;1.67;1.58;;;11.70;88.50;;;;;;5046594;28;20086;-64
2023/02/19 04:06:31;;;;;;;3.22;1.65;;;11.70;88.40;;;;;;5044042;28;20021;-59
2023/02/19 04:09:03;;;;;;;2.40;1.35;;;11.70;88.60;;;;;;5047948;28;20028;-63
2023/02/19 04:11:31;;;;;;;6.70;2.25;;;11.70;88.60;;;;;;5046013;28;20033;-63
2023/02/19 04:14:04;;;;;;;6.00;2.80;;;11.60;88.60;;;;;;5080730;28;20502;-58
2023/02/19 04:16:34;;;;;;;5.25;1.30;;;11.60;88.50;;;;;;5049072;28;20100;-64
2023/02/19 04:19:05;;;;;;;5.25;1.85;;;11.50;88.70;;;;;;5045708;28;20103;-60
2023/02/19 04:21:34;;;;;;;4.00;1.43;;;11.60;88.60;;;;;;5047072;28;20023;-64
2023/02/19 04:24:05;;;;;;;2.33;1.85;;;11.60;88.50;;;;;;5048292;28;20275;-64
2023/02/19 04:26:32;;;;;;;3.33;2.15;;;11.60;88.50;;;;;;5048441;28;20020;-64
2023/02/19 04:28:58;;;;;;;9.13;2.08;;;11.60;88.20;;;;;;5042756;28;20079;-60
2023/02/19 04:31:27;;;;;;;3.20;2.10;;;11.60;88.20;;;;;;5044662;28;20054;-59
2023/02/19 04:33:52;;;;;;;5.55;2.47;;;11.60;88.30;;;;;;5037249;28;20453;-62
2023/02/19 04:36:18;;;;;;;6.82;2.03;;;11.60;88.10;;;;;;5035010;28;20105;-64
2023/02/19 04:38:43;;;;;;;4.50;1.35;;;11.60;88.20;;;;;;5041886;28;20053;-63
2023/02/19 04:41:09;;;;;;;2.30;1.50;;;11.60;88.20;;;;;;5044728;28;20033;-58
2023/02/19 04:43:35;;;;;;;2.40;1.63;;;11.60;88.10;;;;;;5073467;28;20099;-59
2023/02/19 04:46:01;;;;;;;5.82;2.25;;;11.60;88.10;;;;;;5046138;28;20037;-58
2023/02/19 04:48:27;;;;;;;3.03;2.10;;;11.60;88.20;;;;;;5046847;28;20480;-63
2023/02/19 04:50:53;;;;;;;3.50;1.52;;;11.60;88.20;;;;;;5043533;28;20057;-63
2023/02/19 04:53:19;;;;;;;4.47;1.50;;;11.60;88.20;;;;;;5062831;28;20496;-59
2023/02/19 04:55:45;;;;;;;16.73;2.00;;;11.60;88.40;;;;;;5044030;28;20056;-60
2023/02/19 04:58:11;;;;;;;4.35;1.67;;;11.60;88.40;;;;;;5048510;28;20041;-63
2023/02/19 05:00:37;;;;;;;7.85;2.30;;;11.60;88.20;;;;;;5034219;28;20032;-59
2023/02/19 05:03:02;;;;;;;4.15;2.63;;;11.60;88.10;;;;;;5072388;28;20064;-63
2023/02/19 05:05:28;;;;;;;5.55;1.60;;;11.60;88.10;;;;;;5046534;28;20499;-58
2023/02/19 05:07:54;;;;;;;5.88;1.95;;;11.60;88.20;;;;;;5047562;28;20466;-59
2023/02/19 05:10:19;;;;;;;1.67;1.45;;;11.60;88.20;;;;;;5048417;28;20102;-63
2023/02/19 05:12:45;;;;;;;2.55;1.70;;;11.60;88.00;;;;;;5046402;28;20056;-63
2023/02/19 05:15:11;;;;;;;1.95;1.40;;;11.50;88.00;;;;;;5079711;28;20037;-59
2023/02/19 05:17:36;;;;;;;4.07;1.90;;;11.60;88.10;;;;;;5050576;28;20025;-59
2023/02/19 05:20:03;;;;;;;4.35;1.98;;;11.60;88.10;;;;;;5051302;28;20466;-59
2023/02/19 05:22:29;;;;;;;2.20;1.45;;;11.50;88.00;;;;;;5045528;28;20067;-63
2023/02/19 05:24:55;;;;;;;5.05;1.70;;;11.50;88.20;;;;;;5066263;28;20024;-59
2023/02/19 05:27:20;;;;;;;3.63;1.67;;;11.60;88.20;;;;;;5050686;28;20460;-64
2023/02/19 05:29:46;;;;;;;4.50;2.25;;;11.60;88.10;;;;;;5050302;28;20018;-64
2023/02/19 05:32:11;;;;;;;2.65;2.03;;;11.50;88.10;;;;;;5050418;28;20539;-64
2023/02/19 05:34:37;;;;;;;3.90;1.67;;;11.50;88.10;;;;;;5049848;28;20035;-65
2023/02/19 05:37:03;;;;;;;4.20;1.45;;;11.50;88.20;;;;;;5080845;28;20044;-65
2023/02/19 05:39:28;;;;;;;6.05;2.03;;;11.50;88.30;;;;;;5051842;28;20041;-64
2023/02/19 05:41:54;;;;;;;7.40;2.67;;;11.50;88.20;;;;;;5051587;28;20025;-60
2023/02/19 05:44:20;;;;;;;3.10;1.83;;;11.50;88.30;;;;;;5050846;28;20049;-65
2023/02/19 05:46:45;;;;;;;5.53;2.22;;;11.40;88.30;;;;;;5048571;28;20120;-58
2023/02/19 05:49:11;;;;;;;3.78;1.30;;;11.40;88.40;;;;;;5045306;28;20443;-64
2023/02/19 05:51:37;;;;;;;4.72;2.15;;;11.50;88.40;;;;;;5051088;28;20388;-64
2023/02/19 05:54:02;;;;;;;4.43;2.20;;;11.50;88.30;;;;;;5066769;28;20036;-60
2023/02/19 05:56:35;;;;;;;6.00;1.92;;;11.50;88.30;;;;;;5052269;28;20057;-60
2023/02/19 05:59:07;;;;;;;7.45;2.33;;;11.50;88.40;;;;;;5051378;28;20099;-64
2023/02/19 06:01:34;;;;;;;2.93;1.60;;;11.50;88.30;;;;;;5050910;28;20446;-64
2023/02/19 06:04:00;;;;;;;2.92;1.48;;;11.50;88.30;;;;;;5050837;28;20108;-64
2023/02/19 06:06:27;;;;;;;4.75;1.92;;;11.50;88.20;;;;;;5051424;28;20139;-65
2023/02/19 06:08:53;;;;;;;4.07;1.75;;;11.50;88.20;;;;;;5040681;28;20476;-64
2023/02/19 06:11:19;;;;;;;5.32;1.80;;;11.50;88.30;;;;;;5045976;28;20484;-60
2023/02/19 06:13:45;;;;;;;5.78;1.95;;;11.50;88.30;;;;;;5050296;28;20031;-59
2023/02/19 06:16:11;;;;;;;4.50;2.28;;;11.50;88.20;;;;;;5050076;28;20031;-59
2023/02/19 06:18:39;;;;;;;1.60;1.30;;;11.40;88.20;;;;;;5059268;28;20112;-59
2023/02/19 06:21:07;;;;;;;3.30;1.73;;;11.40;88.30;;;;;;5044428;28;20054;-60
2023/02/19 06:23:33;;;;;;;2.13;1.83;;;11.40;88.40;;;;;;5050578;28;20021;-59
2023/02/19 06:26:20;;;;;;;4.20;2.03;;;11.40;88.40;;;;;;5051795;28;20036;-60
2023/02/19 06:28:47;;;;;;;4.90;2.40;;;11.40;88.40;;;;;;5048836;28;20063;-60
2023/02/19 06:31:13;;;;;;;6.22;1.70;;;11.40;88.40;;;;;;5050568;28;20436;-59
2023/02/19 06:33:40;;;;;;;11.85;2.55;;;11.40;88.40;;;;;;5047585;28;20052;-59
2023/02/19 06:36:10;;;;;;;1.90;1.17;;;11.40;88.30;;;;;;5053320;28;20037;-60
2023/02/19 06:38:36;;;;;;;3.63;1.30;;;11.40;88.30;;;;;;5047528;28;20365;-64
2023/02/19 06:41:04;;;;;;;2.40;1.17;;;11.40;88.30;;;;;;5047833;28;20045;-60
2023/02/19 06:43:31;;;;;;;2.13;1.60;;;11.40;88.20;;;;;;5048935;28;20037;-60
2023/02/19 06:46:01;;;;;;;6.70;1.98;;;11.40;88.30;;;;;;5044436;28;20029;-64
2023/02/19 06:48:28;;;;;;;6.03;1.95;;;11.40;88.20;;;;;;5037181;28;20036;-60
2023/02/19 06:50:54;;;;;;;4.93;1.63;;;11.40;88.20;;;;;;5044174;28;20459;-59
2023/02/19 06:53:20;;;;;;;2.28;1.85;;;11.40;88.30;;;;;;5047162;28;20302;-64
2023/02/19 06:55:59;;;;;;;6.07;1.88;;;11.40;88.30;;;;;;5050715;28;20036;-59
2023/02/19 06:58:25;;;;;;;3.65;1.77;;;11.40;88.20;;;;;;5049236;28;20048;-60
2023/02/19 07:00:52;;;;;;;2.05;1.65;;;11.40;88.20;;;;;;5080048;28;20037;-60
2023/02/19 07:03:17;;;;;;;8.25;2.70;;;11.40;88.20;;;;;;5047397;28;20951;-59
2023/02/19 07:05:43;;;;;;;6.03;2.75;;;11.40;88.20;;;;;;5039133;28;20021;-59
2023/02/19 07:08:09;;;;;;;2.35;1.30;;;11.40;88.20;;;;;;5047105;28;20414;-60
2023/02/19 07:10:34;;;;;;;4.10;2.30;;;11.40;88.20;;;;;;5049898;28;20029;-61
2023/02/19 07:13:00;;;;;;;3.65;1.92;;;11.40;88.20;;;;;;5048011;28;20610;-63
2023/02/19 07:15:26;;;;;;;3.63;1.70;;;11.40;88.10;;;;;;5044402;28;20021;-63
2023/02/19 07:17:51;;;;;;;3.35;2.00;;;11.50;88.10;;;;;;5043919;28;20104;-62
2023/02/19 07:20:17;;;;;;;5.05;2.03;;;11.50;88.00;;;;;;5073358;28;20085;-62
2023/02/19 07:22:42;;;;;;;5.80;2.78;;;11.50;87.90;;;;;;5045715;28;20017;-62
2023/02/19 07:25:08;;;;;;;2.95;1.83;;;11.40;87.80;;;;;;5047930;28;20024;-66
2023/02/19 07:27:34;;;;;;;4.95;2.30;;;11.50;87.90;;;;;;5042521;28;20075;-66
2023/02/19 07:30:00;;;;;;;4.80;2.38;;;11.50;88.00;;;;;;5043959;28;20033;-64
2023/02/19 07:32:26;;;;;;;5.35;2.90;;;11.40;87.90;;;;;;5048112;28;20048;-63
2023/02/19 07:34:52;;;;;;;6.60;2.72;;;11.40;87.90;;;;;;5050098;28;20769;-63
2023/02/19 07:37:17;;;;;;;3.55;2.63;;;11.40;87.90;;;;;;5064540;28;20033;-63
2023/02/19 07:39:43;;;;;;;8.07;2.50;;;11.30;88.00;;;;;;5077217;28;20013;-62
2023/02/19 07:42:09;;;;;;;6.40;2.60;;;11.30;88.10;;;;;;5048806;28;20032;-62
2023/02/19 07:44:34;;;;;;;3.00;2.15;;;11.30;88.20;;;;;;5049585;28;20080;-62
2023/02/19 07:47:00;;;;;;;2.80;2.20;;;11.30;88.20;;;;;;5048591;28;20072;-62
2023/02/19 07:49:26;;;;;;;9.40;3.00;;;11.30;88.20;;;;;;5043787;28;20098;-62
2023/02/19 07:51:51;;;;;;;3.72;1.85;;;11.30;88.20;;;;;;5045214;28;20116;-63
2023/02/19 07:54:17;;;;;;;2.33;2.00;;;11.40;88.30;;;;;;5049400;28;20058;-63
2023/02/19 07:56:42;;;;;;;7.82;2.58;;;11.40;88.20;;;;;;5048044;28;20521;-61
2023/02/19 07:59:08;;;;;;;6.43;2.10;;;11.40;88.10;;;;;;5045983;28;20059;-62
2023/02/19 08:04:19;;;;;;;4.88;2.55;;;11.40;88.00;;;;;;5070341;28;20107;-61
2023/02/19 08:06:45;;;;;;;4.30;2.80;;;11.40;87.90;;;;;;5037165;28;20457;-62
2023/02/19 08:09:11;;;;;;;5.32;3.00;;;11.50;88.00;;;;;;5034794;28;20061;-61
2023/02/19 08:14:25;;;;;;;15.52;3.67;;;11.40;87.90;;;;;;5043374;28;20126;-63
2023/02/19 08:16:51;;;;;;;6.03;3.83;;;11.50;88.00;;;;;;5048473;28;20087;-63
2023/02/19 08:19:17;;;;;;;7.65;4.00;;;11.50;87.90;;;;;;5048286;28;20029;-64
2023/02/19 08:21:43;;;;;;;7.32;3.58;;;11.50;87.90;;;;;;5048544;28;20391;-63
2023/02/19 08:24:09;;;;;;;5.25;2.95;;;11.50;87.70;;;;;;5047682;28;20040;-63
2023/02/19 08:26:35;;;;;;;8.65;3.47;;;11.50;87.70;;;;;;5047410;28;20021;-64
2023/02/19 08:29:01;;;;;;;5.93;2.88;;;11.60;87.70;;;;;;5047865;28;20029;-59
2023/02/19 08:31:27;;;;;;;4.35;2.30;;;11.70;87.50;;;;;;5051217;28;20029;-59
2023/02/19 08:33:53;;;;;;;5.07;2.88;;;11.70;87.50;;;;;;5047850;28;20051;-63
2023/02/19 08:36:18;;;;;;;4.78;2.60;;;11.70;87.30;;;;;;5047989;28;20510;-64
2023/02/19 08:38:44;;;;;;;5.28;3.25;;;11.70;87.10;;;;;;5048153;28;20033;-64
2023/02/19 08:41:12;;;;;;;6.72;3.30;;;11.70;86.90;;;;;;5048214;28;20064;-60
2023/02/19 08:43:39;;;;;;;3.83;2.40;;;11.60;87.00;;;;;;5044469;28;20048;-60
2023/02/19 08:46:06;;;;;;;6.18;4.03;;;11.60;87.20;;;;;;5037662;28;20079;-60
2023/02/19 08:48:32;;;;;;;5.10;2.88;;;11.70;87.20;;;;;;5036627;28;20045;-59
2023/02/19 08:51:02;;;;;;;8.55;3.25;;;11.70;86.90;;;;;;5033370;28;20124;-59
2023/02/19 08:53:29;;;;;;;4.72;2.72;;;11.70;86.90;;;;;;5044794;28;20035;-59
2023/02/19 08:55:55;;;;;;;6.15;3.40;;;11.70;87.00;;;;;;5033393;28;20514;-59
2023/02/19 08:58:21;;;;;;;6.70;3.22;;;11.70;87.00;;;;;;5037230;28;20033;-64
2023/02/19 09:00:47;;;;;;;5.53;2.65;;;11.70;86.90;;;;;;5038426;28;20040;-63
2023/02/19 09:03:13;;;;;;;4.78;2.80;;;11.70;86.90;;;;;;5043775;28;20048;-64
2023/02/19 09:05:39;;;;;;;6.65;2.95;;;11.70;86.70;;;;;;5039559;28;20230;-65
2023/02/19 09:08:05;;;;;;;5.65;2.53;;;11.70;86.80;;;;;;5043761;28;20028;-60
2023/02/19 09:10:32;;;;;;;5.82;2.95;;;11.70;86.90;;;;;;5068670;28;20043;-59
2023/02/19 09:12:58;;;;;;;4.20;2.47;;;11.70;86.50;;;;;;5044532;28;20542;-59
2023/02/19 09:15:23;;;;;;;7.22;3.03;;;11.70;86.80;;;;;;5055065;28;20202;-59
2023/02/19 09:17:52;;;;;;;5.70;2.67;;;11.70;86.80;;;;;;5050361;28;20112;-65
2023/02/19 09:20:18;;;;;;;6.00;3.35;;;11.70;86.80;;;;;;5048983;28;20103;-60
2023/02/19 09:22:44;;;;;;;6.07;2.45;;;11.70;86.80;;;;;;5049642;28;20116;-64
2023/02/19 09:25:10;;;;;;;5.30;3.15;;;11.70;86.80;;;;;;5067840;28;20017;-60
2023/02/19 09:27:36;;;;;;;5.78;2.42;;;11.70;86.70;;;;;;5047098;28;20528;-63
2023/02/19 09:30:01;;;;;;;6.07;3.15;;;11.70;86.50;;;;;;5034887;28;20122;-64
2023/02/19 09:32:30;;;;;;;7.57;3.13;;;11.60;86.70;;;;;;5040583;28;20033;-63
2023/02/19 09:34:55;;;;;;;6.40;2.80;;;11.60;86.80;;;;;;5047601;28;20049;-63
2023/02/19 09:37:26;;;;;;;3.25;2.78;;;11.60;86.90;;;;;;5046957;28;20397;-64
2023/02/19 09:39:52;;;;;;;9.65;2.92;;;11.60;86.90;;;;;;5049837;28;20029;-63
2023/02/19 09:42:23;;;;;;;4.55;2.75;;;11.70;86.90;;;;;;5041020;28;20472;-59
2023/02/19 09:44:51;;;;;;;5.17;2.50;;;11.70;86.70;;;;;;5042966;28;20037;-59
2023/02/19 09:47:24;;;;;;;4.78;2.88;;;11.70;86.80;;;;;;5040792;28;20109;-59
2023/02/19 09:49:53;;;;;;;7.25;3.28;;;11.80;86.70;;;;;;5045482;28;20025;-59
2023/02/19 09:52:19;;;;;;;7.10;2.15;;;11.80;86.40;;;;;;5047820;28;20493;-59
2023/02/19 09:54:45;;;;;;;3.75;2.03;;;11.80;86.40;;;;;;5068056;28;20045;-64
2023/02/19 09:57:16;;;;;;;4.50;2.50;;;11.80;86.30;;;;;;5043725;28;20095;-64
2023/02/19 09:59:47;;;;;;;2.92;1.63;;;11.80;86.30;;;;;;5045295;28;20032;-64
2023/02/19 10:02:15;;;;;;;3.10;2.10;;;11.80;86.30;;;;;;5045005;28;20040;-64
2023/02/19 10:04:42;;;;;;;5.30;2.15;;;11.80;86.30;;;;;;5045103;28;20022;-65
2023/02/19 10:07:18;;;;;;;2.47;1.67;;;11.80;86.20;;;;;;5048122;28;20118;-64
2023/02/19 10:10:12;;;;;;;5.50;2.65;;;11.80;86.20;;;;;;5046717;28;20461;-64
2023/02/19 10:12:40;;;;;;;8.95;1.73;;;11.90;86.10;;;;;;5045016;28;20113;-64
2023/02/19 10:15:14;;;;;;;3.30;2.25;;;11.90;86.10;;;;;;5047100;28;20070;-60
2023/02/19 10:17:40;;;;;;;4.10;2.45;;;11.90;86.10;;;;;;5065603;28;20048;-64
2023/02/19 10:20:06;;;;;;;4.63;2.03;;;11.80;86.10;;;;;;5042464;28;20027;-64
2023/02/19 10:22:35;;;;;;;6.00;3.10;;;11.80;86.10;;;;;;5048939;28;20111;-60
2023/02/19 10:25:01;;;;;;;2.72;1.63;;;11.80;86.10;;;;;;5049902;28;20021;-60
2023/02/19 10:27:30;;;;;;;5.75;2.22;;;11.80;86.30;;;;;;5047977;28;20350;-60
2023/02/19 10:29:57;;;;;;;3.55;2.05;;;11.70;86.30;;;;;;5050392;28;20116;-60
2023/02/19 10:32:26;;;;;;;2.03;1.58;;;11.80;86.20;;;;;;5046400;28;20032;-64
2023/02/19 10:35:14;;;;;;;3.78;2.55;;;11.70;86.30;;;;;;5045170;28;20083;-60
2023/02/19 10:37:47;;;;;;;6.95;2.38;;;11.80;86.20;;;;;;5046523;28;20029;-60
2023/02/19 10:40:16;;;;;;;2.50;1.65;;;11.70;86.30;;;;;;5050354;28;20032;-64
2023/02/19 10:42:50;;;;;;;2.65;2.05;;;11.70;86.40;;;;;;5042283;28;20409;-60
2023/02/19 10:45:21;;;;;;;3.33;2.20;;;11.70;86.40;;;;;;5045917;28;20068;-64
2023/02/19 10:47:48;;;;;;;3.78;2.50;;;11.70;86.50;;;;;;5045143;28;20558;-64
2023/02/19 10:50:26;;;;;;;4.05;1.80;;;11.70;86.60;;;;;;5075934;28;20033;-64
2023/02/19 10:52:56;;;;;;;2.15;1.63;;;11.70;86.50;;;;;;5047203;28;20028;-64
2023/02/19 10:55:33;;;;;;;2.67;1.52;;;11.70;86.50;;;;;;5048700;28;20494;-59
2023/02/19 10:58:21;;;;;;;2.15;1.40;;;11.70;86.50;;;;;;5042753;28;20358;-64
2023/02/19 11:00:51;;;;;;;1.40;0.88;;;11.80;86.40;;;;;;5045387;28;20017;-63
2023/02/19 11:03:22;;;;;;;1.90;0.95;;;11.80;86.40;;;;;;5058900;28;20416;-63
2023/02/19 11:06:03;;;;;;;1.30;0.95;;;11.80;86.30;;;;;;5041891;28;20025;-63
2023/02/19 11:08:32;;;;;;;1.65;1.17;;;11.80;86.10;;;;;;5046578;28;20071;-63
2023/02/19 11:10:58;;;;;;;0.60;0.45;;;11.80;86.20;;;;;;5042941;28;20027;-59
2023/02/19 11:13:31;;;;;;;0.73;0.70;;;11.70;86.20;;;;;;5040984;28;20474;-60
2023/02/19 11:15:58;;;;;;;0.35;0.35;;;11.60;86.20;;;;;;5047800;28;20032;-65
2023/02/19 11:18:27;;;;;;;1.33;1.05;;;11.60;86.40;;;;;;5075579;28;20036;-58
2023/02/19 11:20:54;;;;;;;3.05;0.55;;;11.60;86.30;;;;;;5038605;28;20029;-63
2023/02/19 11:23:29;;;;;;;1.48;0.63;;;11.70;86.30;;;;;;5047462;28;20488;-60
2023/02/19 11:25:57;;;;;;;0.75;0.50;;;11.70;86.30;;;;;;5049314;28;20476;-63
2023/02/19 11:28:33;;;;;;;0.57;0.40;;;11.60;86.20;;;;;;5045909;28;20036;-60
2023/02/19 11:31:13;;;;;;;1.80;0.80;;;11.70;86.30;;;;;;5049122;28;20117;-60
2023/02/19 11:34:05;;;;;;;0.85;0.60;;;11.70;86.20;;;;;;5039842;28;20088;-60
2023/02/19 11:36:33;;;;;;;0.90;0.68;;;11.80;86.10;;;;;;5025722;28;20485;-63
2023/02/19 11:39:25;;;;;;;1.75;0.73;;;11.80;86.20;;;;;;5045084;28;20021;-64
2023/02/19 11:42:06;;;;;;;1.27;0.68;;;11.80;86.10;;;;;;5042332;28;20029;-59
2023/02/19 11:44:57;;;;;;;0.75;0.70;;;11.90;86.10;;;;;;5039759;28;20508;-59
2023/02/19 11:47:43;;;;;;;1.50;0.85;;;12.10;85.90;;;;;;5046923;28;20442;-60
2023/02/19 11:50:20;;;;;;;2.75;0.80;;;12.10;85.70;;;;;;5048293;28;20021;-60
2023/02/19 11:53:26;;;;;;;1.30;0.70;;;12.20;85.60;;;;;;5043726;28;20013;-64
2023/02/19 11:56:16;;;;;;;0.85;0.63;;;12.20;85.60;;;;;;5046577;28;20021;-60
2023/02/19 11:58:47;;;;;;;0.50;0.50;;;12.20;85.40;;;;;;5048819;28;20361;-59
2023/02/19 12:01:37;;;;;;;0.45;0.40;;;12.20;85.50;;;;;;5039124;28;20427;-60
2023/02/19 12:04:12;;;;;;;0.82;0.82;;;12.30;85.40;;;;;;5047144;28;20036;-60
2023/02/19 12:06:44;;;;;;;1.45;0.70;;;12.40;85.20;;;;;;5049005;28;20103;-60
2023/02/19 12:09:50;;;;;;;0.38;0.30;;;12.40;84.80;;;;;;5049089;28;20049;-59
2023/02/19 12:12:36;;;;;;;0.50;0.47;;;12.50;84.90;;;;;;5037908;28;20489;-64
2023/02/19 12:15:14;;;;;;;0.82;0.43;;;12.60;84.60;;;;;;5048219;28;20057;-60
2023/02/19 12:18:08;;;;;;;0.47;0.47;;;12.60;84.50;;;;;;5047882;28;20437;-63
2023/02/19 12:20:54;;;;;;;0.65;0.43;;;12.70;84.40;;;;;;5048613;28;20413;-63
2023/02/19 12:23:25;;;;;;;0.45;0.38;;;12.70;84.30;;;;;;5040331;28;20028;-63
2023/02/19 12:26:03;;;;;;;0.10;0.10;;;12.70;84.10;;;;;;5043694;28;20408;-59
2023/02/19 12:29:01;;;;;;;0.25;0.20;;;12.50;84.00;;;;;;5044919;28;20040;-61
2023/02/19 12:31:33;;;;;;;0.65;0.60;;;12.40;83.70;;;;;;5035934;28;20048;-64
2023/02/19 12:33:59;;;;;;;;;;;12.30;84.00;;;;;;5045298;28;20025;-64
2023/02/19 12:36:56;;;;;;;0.10;0.10;;;12.20;84.10;;;;;;5048822;28;20426;-59
2023/02/19 12:39:43;;;;;;;0.35;0.30;;;12.10;84.40;;;;;;5044882;28;20017;-64
2023/02/19 12:42:30;;;;;;;0.20;0.20;;;12.10;84.50;;;;;;5047836;28;20229;-60
2023/02/19 12:45:02;;;;;;;0.50;0.50;;;12.10;84.50;;;;;;5039510;28;20480;-60
2023/02/19 12:47:34;;;;;;;0.35;0.30;;;12.10;84.50;;;;;;5047038;28;20013;-59
2023/02/19 12:50:13;;;;;;;0.65;0.30;;;12.10;84.50;;;;;;5045827;28;20029;-60
2023/02/19 12:52:43;;;;;;;0.63;0.60;;;12.20;84.50;;;;;;5043377;28;20464;-63
2023/02/19 12:55:20;;;;;;;0.50;0.50;;;12.20;84.50;;;;;;5048685;28;20321;-63
2023/02/19 12:57:47;;;;;;;0.20;0.20;;;12.30;84.50;;;;;;5048573;28;20088;-64
2023/02/19 13:00:27;;;;;;;0.60;0.40;;;12.20;84.30;;;;;;5042544;28;20033;-64
2023/02/19 13:03:36;;;;;;;0.30;0.30;;;12.20;84.10;;;;;;5038719;28;20420;-64
2023/02/19 13:06:56;;;;;;;0.22;0.22;;;12.20;84.00;;;;;;5036536;28;20086;-59
2023/02/19 13:09:32;;;;;;;0.30;0.30;;;12.20;84.20;;;;;;5001804;28;20115;-58
2023/02/19 13:12:12;;;;;;;0.30;0.30;;;12.10;84.30;;;;;;5002920;28;20033;-59
2023/02/19 13:14:43;;;;;;;0.73;0.60;;;12.10;84.40;;;;;;5036806;28;20484;-63
2023/02/19 13:17:36;;;;;;;0.47;0.47;;;12.10;84.10;;;;;;5047951;28;20033;-64
2023/02/19 13:20:29;;;;;;;3.72;0.60;;;12.00;83.70;;;;;;5040627;28;20442;-63
2023/02/19 13:26:31;;;;;;;0.52;0.40;;;11.90;84.20;;;;;;5044062;28;20511;-60
2023/02/19 13:29:05;;;;;;;1.38;0.40;;;11.90;84.20;;;;;;5042063;28;20365;-63
2023/02/19 13:31:54;;;;;;;0.35;0.35;;;11.90;84.30;;;;;;5041816;28;20029;-59
2023/02/19 13:34:29;;;;;;;0.50;0.40;;;11.90;84.30;;;;;;5040426;28;20028;-58